sensor_id;sensor_type;location;lat;lon;timestamp;pressure;altitude;pressure_sealevel;temperature;humidity
20889;BME280;10604;51.976;7.594;2023-04-01T00:02:16;98582.16;;;11.42;99.15
20889;BME280;10604;51.976;7.594;2023-04-01T00:04:42;98583.97;;;11.41;98.60
20889;BME280;10604;51.976;7.594;2023-04-01T00:07:08;98586.69;;;11.39;98.83
20889;BME280;10604;51.976;7.594;2023-04-01T00:09:33;98576.13;;;11.39;99.07
20889;BME280;10604;51.976;7.594;2023-04-01T00:12:00;98578.69;;;11.28;98.87
20889;BME280;10604;51.976;7.594;2023-04-01T00:14:26;98582.88;;;11.31;99.13
20889;BME280;10604;51.976;7.594;2023-04-01T00:16:51;98583.84;;;11.43;98.84
20889;BME280;10604;51.976;7.594;2023-04-01T00:19:17;98585.31;;;11.34;98.33
20889;BME280;10604;51.976;7.594;2023-04-01T00:21:43;98578.25;;;11.34;98.17
20889;BME280;10604;51.976;7.594;2023-04-01T00:24:08;98580.25;;;11.31;98.74
20889;BME280;10604;51.976;7.594;2023-04-01T00:26:34;98580.16;;;11.32;99.13
20889;BME280;10604;51.976;7.594;2023-04-01T00:28:59;98573.81;;;11.22;99.31
20889;BME280;10604;51.976;7.594;2023-04-01T00:31:25;98576.31;;;11.24;99.03
20889;BME280;10604;51.976;7.594;2023-04-01T00:33:51;98586.03;;;11.23;99.37
20889;BME280;10604;51.976;7.594;2023-04-01T00:36:19;98578.69;;;11.28;99.73
20889;BME280;10604;51.976;7.594;2023-04-01T00:38:45;98579.09;;;11.35;99.42
20889;BME280;10604;51.976;7.594;2023-04-01T00:41:13;98577.72;;;11.29;99.66
20889;BME280;10604;51.976;7.594;2023-04-01T00:43:40;98571.91;;;11.24;99.22
20889;BME280;10604;51.976;7.594;2023-04-01T00:46:06;98574.66;;;11.35;99.17
20889;BME280;10604;51.976;7.594;2023-04-01T00:48:34;98565.81;;;11.36;98.55
20889;BME280;10604;51.976;7.594;2023-04-01T00:51:05;98566.19;;;11.30;98.87
20889;BME280;10604;51.976;7.594;2023-04-01T00:53:34;98562.63;;;11.31;98.78
20889;BME280;10604;51.976;7.594;2023-04-01T00:56:05;98557.00;;;11.23;98.77
20889;BME280;10604;51.976;7.594;2023-04-01T00:58:34;98570.25;;;11.36;98.30
20889;BME280;10604;51.976;7.594;2023-04-01T01:01:01;98566.00;;;11.33;98.65
20889;BME280;10604;51.976;7.594;2023-04-01T01:03:27;98559.47;;;11.26;98.62
20889;BME280;10604;51.976;7.594;2023-04-01T01:09:16;98563.88;;;11.38;98.95
20889;BME280;10604;51.976;7.594;2023-04-01T01:11:55;98562.41;;;11.34;99.22
20889;BME280;10604;51.976;7.594;2023-04-01T01:15:02;98554.41;;;11.36;99.09
20889;BME280;10604;51.976;7.594;2023-04-01T01:17:57;98554.19;;;11.26;98.92
20889;BME280;10604;51.976;7.594;2023-04-01T01:34:46;98554.59;;;11.20;100.00
20889;BME280;10604;51.976;7.594;2023-04-01T01:37:17;98562.63;;;11.31;100.00
20889;BME280;10604;51.976;7.594;2023-04-01T01:39:47;98555.44;;;11.33;100.00
20889;BME280;10604;51.976;7.594;2023-04-01T01:42:16;98552.47;;;11.25;100.00
20889;BME280;10604;51.976;7.594;2023-04-01T01:44:45;98553.34;;;11.26;100.00
20889;BME280;10604;51.976;7.594;2023-04-01T01:47:13;98552.28;;;11.28;100.00
20889;BME280;10604;51.976;7.594;2023-04-01T01:49:40;98553.13;;;11.29;100.00
20889;BME280;10604;51.976;7.594;2023-04-01T01:52:07;98552.91;;;11.19;100.00
20889;BME280;10604;51.976;7.594;2023-04-01T01:54:32;98552.72;;;11.22;100.00
20889;BME280;10604;51.976;7.594;2023-04-01T01:57:06;98559.47;;;11.26;100.00
20889;BME280;10604;51.976;7.594;2023-04-01T01:59:34;98555.44;;;11.21;100.00
20889;BME280;10604;51.976;7.594;2023-04-01T02:02:02;98554.38;;;11.23;100.00
20889;BME280;10604;51.976;7.594;2023-04-01T02:04:34;98555.22;;;11.11;100.00
20889;BME280;10604;51.976;7.594;2023-04-01T02:07:07;98555.22;;;11.24;100.00
20889;BME280;10604;51.976;7.594;2023-04-01T02:09:36;98559.53;;;11.12;100.00
20889;BME280;10604;51.976;7.594;2023-04-01T02:12:10;98564.91;;;11.11;100.00
20889;BME280;10604;51.976;7.594;2023-04-01T02:14:48;98559.66;;;11.23;100.00
20889;BME280;10604;51.976;7.594;2023-04-01T02:17:18;98562.84;;;11.28;100.00
20889;BME280;10604;51.976;7.594;2023-04-01T02:19:51;98557.75;;;11.25;100.00
20889;BME280;10604;51.976;7.594;2023-04-01T02:22:25;98564.31;;;11.20;100.00
20889;BME280;10604;51.976;7.594;2023-04-01T02:24:54;98557.75;;;11.25;100.00
20889;BME280;10604;51.976;7.594;2023-04-01T02:27:20;98554.28;;;11.25;100.00
20889;BME280;10604;51.976;7.594;2023-04-01T02:29:46;98555.03;;;11.27;100.00
20889;BME280;10604;51.976;7.594;2023-04-01T02:32:12;98559.47;;;11.26;100.00
20889;BME280;10604;51.976;7.594;2023-04-01T02:34:38;98559.66;;;11.23;100.00
20889;BME280;10604;51.976;7.594;2023-04-01T02:37:04;98551.03;;;11.21;100.00
20889;BME280;10604;51.976;7.594;2023-04-01T02:39:29;98551.88;;;11.34;100.00
20889;BME280;10604;51.976;7.594;2023-04-01T02:41:55;98554.50;;;11.34;100.00
20889;BME280;10604;51.976;7.594;2023-04-01T02:44:20;98541.31;;;11.22;100.00
20889;BME280;10604;51.976;7.594;2023-04-01T02:46:45;98543.28;;;11.18;100.00
20889;BME280;10604;51.976;7.594;2023-04-01T02:49:11;98541.06;;;11.37;99.85
20889;BME280;10604;51.976;7.594;2023-04-01T02:51:37;98537.72;;;11.35;100.00
20889;BME280;10604;51.976;7.594;2023-04-01T02:54:02;98550.16;;;11.33;99.47
20889;BME280;10604;51.976;7.594;2023-04-01T02:56:28;98541.50;;;11.44;99.20
20889;BME280;10604;51.976;7.594;2023-04-01T02:58:54;98538.25;;;11.41;99.00
20889;BME280;10604;51.976;7.594;2023-04-01T03:01:20;98546.06;;;11.29;99.91
20889;BME280;10604;51.976;7.594;2023-04-01T03:03:46;98551.22;;;11.31;99.41
20889;BME280;10604;51.976;7.594;2023-04-01T03:06:13;98541.31;;;11.34;99.51
20889;BME280;10604;51.976;7.594;2023-04-01T03:08:39;98547.53;;;11.21;100.00
20889;BME280;10604;51.976;7.594;2023-04-01T03:11:05;98551.34;;;11.29;99.66
20889;BME280;10604;51.976;7.594;2023-04-01T03:13:31;98547.53;;;11.33;99.68
20889;BME280;10604;51.976;7.594;2023-04-01T03:15:56;98545.94;;;11.18;100.00
20889;BME280;10604;51.976;7.594;2023-04-01T03:18:22;98546.34;;;11.12;100.00
20889;BME280;10604;51.976;7.594;2023-04-01T03:20:47;98550.59;;;11.27;100.00
20889;BME280;10604;51.976;7.594;2023-04-01T03:23:13;98551.44;;;11.15;100.00
20889;BME280;10604;51.976;7.594;2023-04-01T03:25:38;98554.34;;;10.98;100.00
20889;BME280;10604;51.976;7.594;2023-04-01T03:28:04;98562.06;;;11.01;100.00
20889;BME280;10604;51.976;7.594;2023-04-01T03:30:30;98559.22;;;11.04;100.00
20889;BME280;10604;51.976;7.594;2023-04-01T03:32:57;98564.50;;;11.04;100.00
20889;BME280;10604;51.976;7.594;2023-04-01T03:35:22;98563.44;;;10.94;100.00
20889;BME280;10604;51.976;7.594;2023-04-01T03:37:48;98569.44;;;10.96;100.00
20889;BME280;10604;51.976;7.594;2023-04-01T03:40:15;98563.44;;;10.94;100.00
20889;BME280;10604;51.976;7.594;2023-04-01T03:42:40;98568.06;;;11.03;100.00
20889;BME280;10604;51.976;7.594;2023-04-01T03:45:06;98565.09;;;10.95;100.00
20889;BME280;10604;51.976;7.594;2023-04-01T03:47:31;98565.09;;;10.95;100.00
20889;BME280;10604;51.976;7.594;2023-04-01T03:49:57;98561.50;;;10.96;100.00
20889;BME280;10604;51.976;7.594;2023-04-01T03:52:22;98576.06;;;11.02;100.00
20889;BME280;10604;51.976;7.594;2023-04-01T03:54:47;98571.66;;;11.02;100.00
20889;BME280;10604;51.976;7.594;2023-04-01T03:57:13;98568.50;;;11.10;100.00
20889;BME280;10604;51.976;7.594;2023-04-01T03:59:38;98575.38;;;11.12;100.00
20889;BME280;10604;51.976;7.594;2023-04-01T04:02:03;98574.22;;;11.16;100.00
20889;BME280;10604;51.976;7.594;2023-04-01T04:04:29;98572.75;;;11.12;100.00
20889;BME280;10604;51.976;7.594;2023-04-01T04:06:55;98573.81;;;11.22;100.00
20889;BME280;10604;51.976;7.594;2023-04-01T04:09:21;98574.53;;;11.24;100.00
20889;BME280;10604;51.976;7.594;2023-04-01T04:11:47;98575.56;;;11.09;100.00
20889;BME280;10604;51.976;7.594;2023-04-01T04:14:12;98585.41;;;11.07;100.00
20889;BME280;10604;51.976;7.594;2023-04-01T04:16:37;98575.09;;;11.29;100.00
20889;BME280;10604;51.976;7.594;2023-04-01T04:19:03;98573.16;;;11.31;100.00
20889;BME280;10604;51.976;7.594;2023-04-01T04:21:29;98581.66;;;11.36;99.80
20889;BME280;10604;51.976;7.594;2023-04-01T04:23:54;98590.28;;;11.26;99.91
20889;BME280;10604;51.976;7.594;2023-04-01T04:26:20;98592.69;;;11.16;100.00
20889;BME280;10604;51.976;7.594;2023-04-01T04:28:45;98594.09;;;11.22;100.00
20889;BME280;10604;51.976;7.594;2023-04-01T04:31:11;98591.22;;;11.12;100.00
20889;BME280;10604;51.976;7.594;2023-04-01T04:33:37;98588.97;;;11.06;100.00
20889;BME280;10604;51.976;7.594;2023-04-01T04:36:03;98588.97;;;11.06;100.00
20889;BME280;10604;51.976;7.594;2023-04-01T04:38:29;98594.88;;;11.10;100.00
20889;BME280;10604;51.976;7.594;2023-04-01T04:40:55;98596.38;;;11.01;100.00
20889;BME280;10604;51.976;7.594;2023-04-01T04:43:21;98590.13;;;11.02;100.00
20889;BME280;10604;51.976;7.594;2023-04-01T04:45:46;98604.22;;;11.15;100.00
20889;BME280;10604;51.976;7.594;2023-04-01T04:48:13;98607.13;;;11.11;100.00
20889;BME280;10604;51.976;7.594;2023-04-01T04:50:44;98606.50;;;11.07;100.00
20889;BME280;10604;51.976;7.594;2023-04-01T04:53:10;98610.72;;;11.10;100.00
20889;BME280;10604;51.976;7.594;2023-04-01T04:55:36;98609.75;;;10.98;100.00
20889;BME280;10604;51.976;7.594;2023-04-01T04:58:01;98614.50;;;10.93;100.00
20889;BME280;10604;51.976;7.594;2023-04-01T05:00:27;98616.38;;;10.91;100.00
20889;BME280;10604;51.976;7.594;2023-04-01T05:02:52;98617.84;;;10.95;100.00
20889;BME280;10604;51.976;7.594;2023-04-01T05:05:17;98618.25;;;10.89;100.00
20889;BME280;10604;51.976;7.594;2023-04-01T05:07:43;98613.47;;;11.08;100.00
20889;BME280;10604;51.976;7.594;2023-04-01T05:10:09;98632.66;;;11.10;100.00
20889;BME280;10604;51.976;7.594;2023-04-01T05:12:34;98624.75;;;11.10;100.00
20889;BME280;10604;51.976;7.594;2023-04-01T05:15:06;98624.41;;;11.02;100.00
20889;BME280;10604;51.976;7.594;2023-04-01T05:17:32;98625.69;;;11.09;100.00
20889;BME280;10604;51.976;7.594;2023-04-01T05:19:58;98628.84;;;11.02;100.00
20889;BME280;10604;51.976;7.594;2023-04-01T05:22:23;98631.72;;;11.11;100.00
20889;BME280;10604;51.976;7.594;2023-04-01T05:24:49;98635.22;;;11.12;100.00
20889;BME280;10604;51.976;7.594;2023-04-01T05:27:14;98638.16;;;11.07;100.00
20889;BME280;10604;51.976;7.594;2023-04-01T05:29:40;98637.75;;;11.13;100.00
20889;BME280;10604;51.976;7.594;2023-04-01T05:32:05;98628.47;;;11.20;100.00
20889;BME280;10604;51.976;7.594;2023-04-01T05:34:31;98638.38;;;11.17;100.00
20889;BME280;10604;51.976;7.594;2023-04-01T05:36:56;98628.81;;;11.28;100.00
20889;BME280;10604;51.976;7.594;2023-04-01T05:39:21;98632.81;;;11.21;100.00
20889;BME280;10604;51.976;7.594;2023-04-01T05:41:47;98636.19;;;11.23;100.00
20889;BME280;10604;51.976;7.594;2023-04-01T05:44:12;98642.22;;;11.25;100.00
20889;BME280;10604;51.976;7.594;2023-04-01T05:46:37;98640.72;;;11.21;100.00
20889;BME280;10604;51.976;7.594;2023-04-01T05:49:03;98642.44;;;11.22;100.00
20889;BME280;10604;51.976;7.594;2023-04-01T05:51:28;98651.69;;;11.15;100.00
20889;BME280;10604;51.976;7.594;2023-04-01T05:53:54;98641.78;;;11.31;100.00
20889;BME280;10604;51.976;7.594;2023-04-01T05:56:19;98648.34;;;11.38;100.00
20889;BME280;10604;51.976;7.594;2023-04-01T05:58:46;98642.25;;;11.51;100.00
20889;BME280;10604;51.976;7.594;2023-04-01T06:01:15;98642.47;;;11.48;100.00
20889;BME280;10604;51.976;7.594;2023-04-01T06:03:41;98646.28;;;11.44;100.00
20889;BME280;10604;51.976;7.594;2023-04-01T06:06:14;98646.47;;;11.53;100.00
20889;BME280;10604;51.976;7.594;2023-04-01T06:08:40;98647.88;;;11.71;100.00
20889;BME280;10604;51.976;7.594;2023-04-01T06:11:22;98650.72;;;11.68;99.99
20889;BME280;10604;51.976;7.594;2023-04-01T06:19:52;98658.97;;;11.64;100.00
20889;BME280;10604;51.976;7.594;2023-04-01T06:22:35;98664.44;;;11.61;99.81
20889;BME280;10604;51.976;7.594;2023-04-01T06:25:27;98675.84;;;11.61;100.00
20889;BME280;10604;51.976;7.594;2023-04-01T06:31:20;98677.56;;;11.75;100.00
20889;BME280;10604;51.976;7.594;2023-04-01T06:33:58;98677.78;;;11.72;100.00
20889;BME280;10604;51.976;7.594;2023-04-01T06:47:54;98678.22;;;11.91;99.81
20889;BME280;10604;51.976;7.594;2023-04-01T06:50:30;98686.03;;;11.80;100.00
20889;BME280;10604;51.976;7.594;2023-04-01T06:56:17;98687.09;;;12.15;99.31
20889;BME280;10604;51.976;7.594;2023-04-01T06:58:50;98688.56;;;12.20;98.73
20889;BME280;10604;51.976;7.594;2023-04-01T07:01:26;98690.88;;;12.24;97.87
20889;BME280;10604;51.976;7.594;2023-04-01T07:03:59;98696.91;;;12.39;97.61
20889;BME280;10604;51.976;7.594;2023-04-01T07:06:32;98694.22;;;12.51;97.23
20889;BME280;10604;51.976;7.594;2023-04-01T07:09:05;98695.50;;;12.46;96.90
20889;BME280;10604;51.976;7.594;2023-04-01T07:11:34;98700.00;;;12.69;97.05
20889;BME280;10604;51.976;7.594;2023-04-01T07:20:10;98704.84;;;12.75;95.72
20889;BME280;10604;51.976;7.594;2023-04-01T07:22:41;98706.06;;;12.71;96.23
20889;BME280;10604;51.976;7.594;2023-04-01T07:25:31;98708.38;;;12.50;96.27
20889;BME280;10604;51.976;7.594;2023-04-01T07:28:11;98718.78;;;12.41;95.98
20889;BME280;10604;51.976;7.594;2023-04-01T07:33:49;98719.81;;;12.51;97.12
20889;BME280;10604;51.976;7.594;2023-04-01T07:47:41;98729.25;;;12.30;97.78
20889;BME280;10604;51.976;7.594;2023-04-01T07:55:29;98732.13;;;12.27;98.06
20889;BME280;10604;51.976;7.594;2023-04-01T08:00:44;98736.78;;;12.36;97.55
20889;BME280;10604;51.976;7.594;2023-04-01T08:03:29;98740.78;;;12.54;97.25
20889;BME280;10604;51.976;7.594;2023-04-01T08:06:16;98744.53;;;12.75;96.98
20889;BME280;10604;51.976;7.594;2023-04-01T08:08:48;98749.22;;;12.59;97.42
20889;BME280;10604;51.976;7.594;2023-04-01T08:16:49;98754.81;;;12.67;95.82
20889;BME280;10604;51.976;7.594;2023-04-01T08:22:26;98755.28;;;12.98;96.20
20889;BME280;10604;51.976;7.594;2023-04-01T08:24:54;98767.41;;;12.76;95.51
20889;BME280;10604;51.976;7.594;2023-04-01T08:27:35;98761.38;;;12.74;95.94
20889;BME280;10604;51.976;7.594;2023-04-01T08:30:06;98766.53;;;12.88;95.83
20889;BME280;10604;51.976;7.594;2023-04-01T08:32:42;98774.13;;;12.93;95.57
20889;BME280;10604;51.976;7.594;2023-04-01T08:38:12;98771.38;;;12.94;95.70
20889;BME280;10604;51.976;7.594;2023-04-01T08:40:59;98778.31;;;13.08;95.53
20889;BME280;10604;51.976;7.594;2023-04-01T08:48:58;98785.19;;;13.11;94.97
20889;BME280;10604;51.976;7.594;2023-04-01T09:27:08;98814.09;;;13.26;94.93
20889;BME280;10604;51.976;7.594;2023-04-01T09:32:39;98817.31;;;13.19;94.68
20889;BME280;10604;51.976;7.594;2023-04-01T09:38:48;98824.03;;;13.59;93.46
20889;BME280;10604;51.976;7.594;2023-04-01T09:44:14;98823.19;;;13.59;93.65
20889;BME280;10604;51.976;7.594;2023-04-01T10:03:35;98842.31;;;13.99;91.16
20889;BME280;10604;51.976;7.594;2023-04-01T10:06:43;98845.63;;;13.90;90.17
20889;BME280;10604;51.976;7.594;2023-04-01T10:15:06;98855.25;;;13.67;92.03
20889;BME280;10604;51.976;7.594;2023-04-01T10:17:56;98854.22;;;13.69;92.41
20889;BME280;10604;51.976;7.594;2023-04-01T10:20:55;98851.59;;;13.81;93.48
20889;BME280;10604;51.976;7.594;2023-04-01T10:24:08;98852.06;;;13.75;93.05
20889;BME280;10604;51.976;7.594;2023-04-01T10:37:49;98872.38;;;14.57;88.13
20889;BME280;10604;51.976;7.594;2023-04-01T10:40:58;98870.94;;;14.53;89.21
20889;BME280;10604;51.976;7.594;2023-04-01T10:57:21;98861.09;;;15.10;85.75
20889;BME280;10604;51.976;7.594;2023-04-01T11:30:53;98892.69;;;14.10;89.69
20889;BME280;10604;51.976;7.594;2023-04-01T11:36:35;98895.19;;;14.35;90.16
20889;BME280;10604;51.976;7.594;2023-04-01T11:44:26;98900.19;;;14.75;89.43
20889;BME280;10604;51.976;7.594;2023-04-01T11:52:37;98904.31;;;15.01;87.45
20889;BME280;10604;51.976;7.594;2023-04-01T12:03:17;98926.66;;;14.99;86.75
20889;BME280;10604;51.976;7.594;2023-04-01T12:08:51;98925.00;;;14.63;89.24
20889;BME280;10604;51.976;7.594;2023-04-01T12:11:51;98931.47;;;14.47;89.45
20889;BME280;10604;51.976;7.594;2023-04-01T12:17:45;98937.28;;;14.64;89.71
20889;BME280;10604;51.976;7.594;2023-04-01T12:19:58;98937.00;;;14.44;89.32
20889;BME280;10604;51.976;7.594;2023-04-01T12:22:45;98944.91;;;14.68;88.60
20889;BME280;10604;51.976;7.594;2023-04-01T12:28:25;98949.38;;;14.68;88.67
20889;BME280;10604;51.976;7.594;2023-04-01T12:34:01;98962.22;;;14.50;87.64
20889;BME280;10604;51.976;7.594;2023-04-01T12:39:33;98958.25;;;13.84;90.81
20889;BME280;10604;51.976;7.594;2023-04-01T12:45:18;98971.59;;;13.83;90.84
20889;BME280;10604;51.976;7.594;2023-04-01T12:56:19;98978.81;;;13.81;90.72
20889;BME280;10604;51.976;7.594;2023-04-01T13:04:49;98991.00;;;14.20;90.38
20889;BME280;10604;51.976;7.594;2023-04-01T13:10:17;98998.38;;;14.27;89.76
20889;BME280;10604;51.976;7.594;2023-04-01T13:15:41;99007.91;;;14.30;90.02
20889;BME280;10604;51.976;7.594;2023-04-01T13:27:16;99014.69;;;14.58;90.49
20889;BME280;10604;51.976;7.594;2023-04-01T13:40:38;99024.25;;;14.95;87.72
20889;BME280;10604;51.976;7.594;2023-04-01T13:43:28;99022.84;;;15.02;87.89
20889;BME280;10604;51.976;7.594;2023-04-01T13:49:11;99031.06;;;15.10;86.56
20889;BME280;10604;51.976;7.594;2023-04-01T14:02:59;99045.72;;;15.38;84.97
20889;BME280;10604;51.976;7.594;2023-04-01T14:11:10;99043.94;;;15.50;83.83
20889;BME280;10604;51.976;7.594;2023-04-01T14:21:55;99061.72;;;15.14;87.20
20889;BME280;10604;51.976;7.594;2023-04-01T14:32:34;99085.91;;;14.64;88.28
20889;BME280;10604;51.976;7.594;2023-04-01T14:35:25;99088.16;;;14.21;88.42
20889;BME280;10604;51.976;7.594;2023-04-01T14:44:23;99089.88;;;13.96;92.52
20889;BME280;10604;51.976;7.594;2023-04-01T14:49:37;99097.50;;;14.01;91.68
20889;BME280;10604;51.976;7.594;2023-04-01T14:54:48;99104.09;;;13.95;92.87
20889;BME280;10604;51.976;7.594;2023-04-01T14:59:54;99115.53;;;13.96;92.86
20889;BME280;10604;51.976;7.594;2023-04-01T15:02:37;99108.94;;;14.01;92.63
20889;BME280;10604;51.976;7.594;2023-04-01T15:08:32;99115.09;;;14.15;92.72
20889;BME280;10604;51.976;7.594;2023-04-01T15:11:13;99119.34;;;14.17;91.96
20889;BME280;10604;51.976;7.594;2023-04-01T15:22:24;99140.94;;;14.36;91.96
20889;BME280;10604;51.976;7.594;2023-04-01T15:30:17;99145.41;;;14.48;91.22
20889;BME280;10604;51.976;7.594;2023-04-01T15:38:53;99158.88;;;14.82;91.15
20889;BME280;10604;51.976;7.594;2023-04-01T15:41:24;99164.53;;;15.01;90.19
20889;BME280;10604;51.976;7.594;2023-04-01T15:43:59;99161.94;;;15.12;89.25
20889;BME280;10604;51.976;7.594;2023-04-01T15:54:57;99181.22;;;15.27;85.85
20889;BME280;10604;51.976;7.594;2023-04-01T16:11:15;99209.91;;;14.11;89.02
20889;BME280;10604;51.976;7.594;2023-04-01T16:18:57;99223.81;;;14.02;90.13
20889;BME280;10604;51.976;7.594;2023-04-01T16:21:52;99223.91;;;13.88;90.31
20889;BME280;10604;51.976;7.594;2023-04-01T16:24:41;99231.94;;;13.86;90.81
20889;BME280;10604;51.976;7.594;2023-04-01T16:27:18;99234.06;;;13.81;91.10
20889;BME280;10604;51.976;7.594;2023-04-01T16:35:29;99246.13;;;13.72;92.05
20889;BME280;10604;51.976;7.594;2023-04-01T16:43:41;99257.56;;;13.60;93.42
20889;BME280;10604;51.976;7.594;2023-04-01T16:48:57;99267.97;;;13.63;93.15
20889;BME280;10604;51.976;7.594;2023-04-01T16:51:24;99276.84;;;13.62;93.45
20889;BME280;10604;51.976;7.594;2023-04-01T16:54:16;99280.91;;;13.41;94.32
20889;BME280;10604;51.976;7.594;2023-04-01T17:02:23;99301.38;;;13.11;95.53
20889;BME280;10604;51.976;7.594;2023-04-01T17:07:48;99307.94;;;13.05;95.46
20889;BME280;10604;51.976;7.594;2023-04-01T17:12:45;99317.31;;;12.82;96.25
20889;BME280;10604;51.976;7.594;2023-04-01T17:20:40;99339.63;;;12.64;97.01
20889;BME280;10604;51.976;7.594;2023-04-01T17:29:00;99362.66;;;12.62;96.24
20889;BME280;10604;51.976;7.594;2023-04-01T17:34:03;99382.09;;;12.47;97.04
20889;BME280;10604;51.976;7.594;2023-04-01T17:39:37;99395.69;;;12.41;97.65
20889;BME280;10604;51.976;7.594;2023-04-01T17:50:13;99411.41;;;12.28;97.18
20889;BME280;10604;51.976;7.594;2023-04-01T17:55:48;99425.59;;;12.11;96.78
20889;BME280;10604;51.976;7.594;2023-04-01T17:58:21;99433.47;;;11.82;97.46
20889;BME280;10604;51.976;7.594;2023-04-01T18:01:06;99445.91;;;11.95;96.87
20889;BME280;10604;51.976;7.594;2023-04-01T18:23:43;99509.28;;;11.64;96.79
20889;BME280;10604;51.976;7.594;2023-04-01T18:26:20;99518.81;;;11.51;96.63
20889;BME280;10604;51.976;7.594;2023-04-01T18:29:32;99520.34;;;11.55;96.75
20889;BME280;10604;51.976;7.594;2023-04-01T18:35:44;99526.63;;;11.36;96.18
20889;BME280;10604;51.976;7.594;2023-04-01T18:37:59;99548.78;;;11.50;96.03
20889;BME280;10604;51.976;7.594;2023-04-01T18:43:12;99552.50;;;11.46;96.02
20889;BME280;10604;51.976;7.594;2023-04-01T18:45:57;99564.41;;;11.37;96.29
20889;BME280;10604;51.976;7.594;2023-04-01T18:48:52;99560.41;;;11.13;96.83
20889;BME280;10604;51.976;7.594;2023-04-01T18:54:27;99577.16;;;10.94;96.50
20889;BME280;10604;51.976;7.594;2023-04-01T18:57:18;99601.00;;;10.93;97.10
20889;BME280;10604;51.976;7.594;2023-04-01T18:59:55;99597.44;;;10.94;96.60
20889;BME280;10604;51.976;7.594;2023-04-01T19:02:29;99603.00;;;10.88;96.41
20889;BME280;10604;51.976;7.594;2023-04-01T19:05:00;99613.41;;;10.91;96.13
20889;BME280;10604;51.976;7.594;2023-04-01T19:25:48;99670.66;;;10.34;96.47
20889;BME280;10604;51.976;7.594;2023-04-01T19:41:45;99699.41;;;10.20;96.16
20889;BME280;10604;51.976;7.594;2023-04-01T19:44:38;99707.09;;;10.25;96.53
20889;BME280;10604;51.976;7.594;2023-04-01T19:53:08;99723.13;;;10.20;96.44
20889;BME280;10604;51.976;7.594;2023-04-01T19:55:41;99731.84;;;10.22;95.69
20889;BME280;10604;51.976;7.594;2023-04-01T20:00:44;99735.75;;;10.12;95.37
20889;BME280;10604;51.976;7.594;2023-04-01T20:03:35;99754.31;;;10.09;96.09
20889;BME280;10604;51.976;7.594;2023-04-01T20:09:26;99767.38;;;9.92;95.47
20889;BME280;10604;51.976;7.594;2023-04-01T20:14:53;99779.63;;;9.93;95.96
20889;BME280;10604;51.976;7.594;2023-04-01T20:17:23;99788.56;;;9.89;95.12
20889;BME280;10604;51.976;7.594;2023-04-01T20:25:05;99808.59;;;9.72;94.30
20889;BME280;10604;51.976;7.594;2023-04-01T20:27:39;99821.31;;;9.61;94.59
20889;BME280;10604;51.976;7.594;2023-04-01T20:30:26;99818.63;;;9.63;94.27
20889;BME280;10604;51.976;7.594;2023-04-01T20:35:44;99844.22;;;9.59;94.88
20889;BME280;10604;51.976;7.594;2023-04-01T20:38:29;99840.81;;;9.57;95.00
20889;BME280;10604;51.976;7.594;2023-04-01T20:41:09;99846.19;;;9.54;95.22
20889;BME280;10604;51.976;7.594;2023-04-01T20:44:11;99852.06;;;9.61;94.61
20889;BME280;10604;51.976;7.594;2023-04-01T20:47:03;99864.97;;;9.45;93.70
20889;BME280;10604;51.976;7.594;2023-04-01T20:49:45;99872.88;;;9.45;93.13
20889;BME280;10604;51.976;7.594;2023-04-01T20:59:59;99887.06;;;9.41;91.60
20889;BME280;10604;51.976;7.594;2023-04-01T21:13:21;99911.78;;;9.15;92.12
20889;BME280;10604;51.976;7.594;2023-04-01T21:32:46;99961.03;;;9.10;91.44
20889;BME280;10604;51.976;7.594;2023-04-01T21:35:45;99965.34;;;9.13;91.19
20889;BME280;10604;51.976;7.594;2023-04-01T21:49:44;100009.59;;;9.01;92.18
20889;BME280;10604;51.976;7.594;2023-04-01T21:59:32;100031.78;;;8.94;91.72
20889;BME280;10604;51.976;7.594;2023-04-01T22:01:52;100039.56;;;8.96;91.53
20889;BME280;10604;51.976;7.594;2023-04-01T22:04:33;100036.16;;;8.94;90.77
20889;BME280;10604;51.976;7.594;2023-04-01T22:07:02;100038.81;;;8.94;90.75
20889;BME280;10604;51.976;7.594;2023-04-01T22:20:28;100077.19;;;8.73;90.29
20889;BME280;10604;51.976;7.594;2023-04-01T22:28:37;100090.78;;;8.59;90.38
20889;BME280;10604;51.976;7.594;2023-04-01T22:31:05;100100.81;;;8.47;90.02
20889;BME280;10604;51.976;7.594;2023-04-01T22:33:39;100101.41;;;8.56;89.65
20889;BME280;10604;51.976;7.594;2023-04-01T22:36:23;100104.09;;;8.53;89.34
20889;BME280;10604;51.976;7.594;2023-04-01T22:42:08;100109.44;;;8.52;89.43
20889;BME280;10604;51.976;7.594;2023-04-01T22:50:05;100137.28;;;8.28;90.32
20889;BME280;10604;51.976;7.594;2023-04-01T22:52:41;100142.78;;;8.50;90.11
20889;BME280;10604;51.976;7.594;2023-04-01T22:55:15;100136.50;;;8.24;90.00
20889;BME280;10604;51.976;7.594;2023-04-01T22:57:57;100159.09;;;8.32;88.72
20889;BME280;10604;51.976;7.594;2023-04-01T23:00:58;100177.97;;;8.15;89.23
20889;BME280;10604;51.976;7.594;2023-04-01T23:03:41;100179.06;;;8.08;89.04
20889;BME280;10604;51.976;7.594;2023-04-01T23:06:13;100174.56;;;8.11;88.98
20889;BME280;10604;51.976;7.594;2023-04-01T23:09:13;100180.09;;;8.02;89.56
20889;BME280;10604;51.976;7.594;2023-04-01T23:19:49;100198.63;;;7.96;88.99
20889;BME280;10604;51.976;7.594;2023-04-01T23:27:53;100224.81;;;7.99;88.87
20889;BME280;10604;51.976;7.594;2023-04-01T23:33:19;100222.50;;;7.89;88.74
20889;BME280;10604;51.976;7.594;2023-04-01T23:35:52;100226.63;;;7.97;88.55
20889;BME280;10604;51.976;7.594;2023-04-01T23:38:20;100229.00;;;8.06;88.33
20889;BME280;10604;51.976;7.594;2023-04-01T23:40:51;100233.34;;;8.07;88.65
20889;BME280;10604;51.976;7.594;2023-04-01T23:43:33;100240.59;;;7.98;88.98
20889;BME280;10604;51.976;7.594;2023-04-01T23:46:03;100263.38;;;7.97;88.53
20889;BME280;10604;51.976;7.594;2023-04-01T23:48:42;100258.78;;;7.73;89.23
20889;BME280;10604;51.976;7.594;2023-04-01T23:51:36;100259.03;;;7.64;89.08